»·PEaware :: SWA896 KDEN-KLAS

SWA896 :: KDEN-KLAS

FLIGHT INFORMATION

Flight Status: Arrived
Operator:
Southwest Airlines
More flights by this operator :: More flights under this callsign
Pilot: Daniel W. (24238)
Aircraft: BOEING 737-800
(B738)
More flights by this aircraft type
Origin: KDEN Denver Intl
United States
Destination: KLAS McCarran Intl
United States
More flights between these airports :: More routes between these airports
Route: +CONNR7 WERNR ZAKRY GGAPP SITEE4
File this flight plan on PilotEdge
Remarks: PBN / A1D1O1S2T1 NAV / RNVD1E1A1 RNP10 DAT / 1FANSP2PDC DOF / 200828 REG / N8680C EET / KZLC0043 KZLA0100 SEL / APGJ CODE / ABEEEA PER / C
Altitude:
(Current/Filed)
38,000ft
Speed:
(Current/Filed)
460kts
Departed: 28-Aug-20 05:04 PM
Arrived: 28-Aug-20 06:31 PM
Distance/Time
Traveled:
545nm/1:26
Distance/Time
To Go:
Arrived

Flight Plot

Page will automatically refresh every two minutes.

Flight plan parsing failed; only flown route is shown


Map Options




Map Legend


Flown Route
Filed Route
Departure Airport
Arrival Airport
Navaid (VOR, NDB)
Fix

Horizontal Profiles

Position Reports

Time Latitude Longitude Heading Altitude Ground
Speed
28-Aug-20 15:51 39.862680 -104.677639 0 5439ft 0kts
28-Aug-20 15:52 39.862680 -104.677639 0 5439ft 0kts
28-Aug-20 15:53 39.862680 -104.677639 0 5439ft 0kts
28-Aug-20 15:54 39.862680 -104.677639 0 5439ft 0kts
28-Aug-20 15:55 39.862680 -104.677639 0 5439ft 0kts
28-Aug-20 15:56 39.862680 -104.677639 0 5439ft 0kts
28-Aug-20 15:57 39.862680 -104.677639 0 5439ft 0kts
28-Aug-20 15:58 39.862680 -104.677639 0 5439ft 0kts
28-Aug-20 15:59 39.862680 -104.677639 0 5439ft 0kts
28-Aug-20 16:00 39.862680 -104.677639 0 5439ft 0kts
28-Aug-20 16:01 39.862680 -104.677639 0 5439ft 0kts
28-Aug-20 16:02 39.862680 -104.677639 0 5439ft 0kts
28-Aug-20 16:03 39.862680 -104.677639 0 5439ft 0kts
28-Aug-20 16:04 39.862680 -104.677639 0 5439ft 0kts
28-Aug-20 16:05 39.862680 -104.677639 0 5439ft 0kts
28-Aug-20 16:06 39.862680 -104.677639 0 5439ft 0kts
28-Aug-20 16:07 39.862680 -104.677639 0 5439ft 0kts
28-Aug-20 16:08 39.862680 -104.677639 0 5439ft 0kts
28-Aug-20 16:09 39.862680 -104.677639 0 5439ft 0kts
28-Aug-20 16:10 39.862680 -104.677639 0 5439ft 0kts
28-Aug-20 16:11 39.862680 -104.677639 0 5439ft 0kts
28-Aug-20 16:12 39.862680 -104.677639 0 5439ft 0kts
28-Aug-20 16:13 39.862680 -104.677639 0 5439ft 0kts
28-Aug-20 16:14 39.862680 -104.677639 0 5439ft 0kts
28-Aug-20 16:15 39.862680 -104.677639 0 5439ft 0kts
28-Aug-20 16:16 39.862680 -104.677639 0 5439ft 0kts
28-Aug-20 16:17 39.862680 -104.677639 0 5439ft 0kts
28-Aug-20 16:18 39.862680 -104.677639 0 5439ft 0kts
28-Aug-20 16:19 39.862680 -104.677639 0 5439ft 0kts
28-Aug-20 16:20 39.862680 -104.677639 0 5439ft 0kts
28-Aug-20 16:21 39.862680 -104.677639 0 5439ft 0kts
28-Aug-20 16:22 39.862680 -104.677639 0 5439ft 0kts
28-Aug-20 16:23 39.862680 -104.677639 0 5439ft 0kts
28-Aug-20 16:24 39.862680 -104.677639 0 5439ft 0kts
28-Aug-20 16:25 39.862680 -104.677639 0 5439ft 0kts
28-Aug-20 16:26 39.862680 -104.677639 0 5439ft 0kts
28-Aug-20 16:27 39.862680 -104.677639 0 5439ft 0kts
28-Aug-20 16:28 39.862680 -104.677639 0 5439ft 0kts
28-Aug-20 16:29 39.862680 -104.677639 0 5439ft 0kts
28-Aug-20 16:30 39.862680 -104.677639 0 5439ft 0kts
28-Aug-20 16:31 39.862680 -104.677639 0 5439ft 0kts
28-Aug-20 16:32 39.862680 -104.677639 0 5439ft 0kts
28-Aug-20 16:33 39.862680 -104.677639 0 5439ft 0kts
28-Aug-20 16:34 39.862680 -104.677639 0 5439ft 0kts
28-Aug-20 16:35 39.862680 -104.677639 0 5439ft 0kts
28-Aug-20 16:36 39.862680 -104.677639 0 5439ft 0kts
28-Aug-20 16:37 39.862680 -104.677639 0 5439ft 0kts
28-Aug-20 16:38 39.862680 -104.677639 0 5439ft 0kts
28-Aug-20 16:39 39.862680 -104.677639 0 5439ft 0kts
28-Aug-20 16:40 39.862680 -104.677639 0 5439ft 0kts
28-Aug-20 16:41 39.862680 -104.677639 0 5439ft 0kts
28-Aug-20 16:42 39.862680 -104.677639 0 5439ft 0kts
28-Aug-20 16:43 39.862680 -104.677639 0 5439ft 0kts
28-Aug-20 16:44 39.862680 -104.677639 0 5439ft 0kts
28-Aug-20 16:45 39.862680 -104.677639 0 5439ft 0kts
28-Aug-20 16:46 39.862680 -104.677639 0 5439ft 0kts
28-Aug-20 16:47 39.862680 -104.677639 0 5439ft 0kts
28-Aug-20 16:48 39.862680 -104.677639 0 5439ft 0kts
28-Aug-20 16:49 39.862680 -104.677639 0 5439ft 0kts
28-Aug-20 16:50 39.862680 -104.677639 0 5439ft 0kts
28-Aug-20 16:51 39.862680 -104.677639 0 5439ft 0kts
28-Aug-20 16:52 39.862680 -104.677639 359 5439ft 0kts
28-Aug-20 16:53 39.862204 -104.677476 318 5439ft 2kts
28-Aug-20 16:54 39.862010 -104.676908 270 5439ft 0kts
28-Aug-20 16:55 39.862010 -104.676908 270 5439ft 0kts
28-Aug-20 16:56 39.861761 -104.677190 211 5439ft 2kts
28-Aug-20 16:57 39.861418 -104.679586 270 5439ft 19kts
28-Aug-20 16:58 39.861439 -104.682909 270 5439ft 0kts
28-Aug-20 17:00 39.862864 -104.685077 1 5439ft 12kts
28-Aug-20 17:01 39.864323 -104.685378 271 5439ft 4kts
28-Aug-20 17:02 39.864330 -104.685763 271 5439ft 0kts
28-Aug-20 17:03 39.865743 -104.687183 0 5439ft 33kts
28-Aug-20 17:04 39.901669 -104.686658 0 6239ft 177kts
28-Aug-20 17:05 39.929386 -104.735111 253 8057ft 240kts
28-Aug-20 17:06 39.889303 -104.817758 237 10003ft 297kts
28-Aug-20 17:07 39.842254 -104.913508 247 12201ft 337kts
28-Aug-20 17:08 39.816109 -105.039829 256 13824ft 384kts
28-Aug-20 17:09 39.788917 -105.174772 255 16391ft 392kts
28-Aug-20 17:10 39.760922 -105.311759 257 18942ft 394kts
28-Aug-20 17:11 39.732450 -105.452045 256 20848ft 406kts
28-Aug-20 17:12 39.702902 -105.596367 256 22685ft 414kts
28-Aug-20 17:13 39.676855 -105.744311 260 24012ft 428kts
28-Aug-20 17:13 39.659967 -105.872796 259 25009ft 437kts
28-Aug-20 17:15 39.634581 -106.055627 258 26353ft 446kts
28-Aug-20 17:16 39.612688 -106.215854 257 27356ft 454kts
28-Aug-20 17:16 39.594107 -106.351175 257 28115ft 460kts
28-Aug-20 17:18 39.566599 -106.542553 256 29437ft 459kts
28-Aug-20 17:19 39.538999 -106.701588 247 31065ft 444kts
28-Aug-20 17:19 39.500602 -106.822747 245 32484ft 435kts
28-Aug-20 17:21 39.447337 -106.992346 245 34018ft 430kts
28-Aug-20 17:21 39.409540 -107.111067 246 35157ft 425kts
28-Aug-20 17:22 39.364257 -107.250944 244 36466ft 419kts
28-Aug-20 17:23 39.316600 -107.386662 245 37637ft 413kts
28-Aug-20 17:24 39.269242 -107.521622 245 38476ft 412kts
28-Aug-20 17:25 39.222549 -107.655601 245 38422ft 408kts
28-Aug-20 17:26 39.175998 -107.789639 245 38336ft 409kts
28-Aug-20 17:27 39.129040 -107.923241 245 38243ft 410kts
28-Aug-20 17:28 39.081760 -108.056939 245 38197ft 409kts
28-Aug-20 17:29 39.034317 -108.190452 245 38155ft 411kts
28-Aug-20 17:30 38.986531 -108.324277 245 38127ft 411kts
28-Aug-20 17:31 38.938586 -108.457955 245 38109ft 412kts
28-Aug-20 17:32 38.890529 -108.591335 244 38144ft 412kts
28-Aug-20 17:33 38.842295 -108.724604 244 38199ft 412kts
28-Aug-20 17:34 38.793919 -108.857670 244 38229ft 412kts
28-Aug-20 17:35 38.745411 -108.990508 244 38297ft 412kts
28-Aug-20 17:36 38.696741 -109.123192 244 38264ft 412kts
28-Aug-20 17:37 38.647868 -109.255838 244 38202ft 412kts
28-Aug-20 17:38 38.598688 -109.388739 244 38141ft 413kts
28-Aug-20 17:39 38.549433 -109.521254 244 38091ft 412kts
28-Aug-20 17:40 38.499898 -109.653921 243 38065ft 413kts
28-Aug-20 17:41 38.450237 -109.786360 243 38055ft 413kts
28-Aug-20 17:42 38.400394 -109.918693 243 38043ft 414kts
28-Aug-20 17:43 38.350385 -110.050932 243 38050ft 414kts
28-Aug-20 17:44 38.299980 -110.183568 243 38054ft 414kts
28-Aug-20 17:45 38.249746 -110.315215 243 38053ft 414kts
28-Aug-20 17:46 38.199273 -110.446920 243 38050ft 414kts
28-Aug-20 17:47 38.148698 -110.578328 243 38049ft 412kts
28-Aug-20 17:48 38.098072 -110.709307 243 38049ft 412kts
28-Aug-20 17:49 38.047533 -110.839511 243 38058ft 411kts
28-Aug-20 17:50 37.996839 -110.969560 243 38061ft 411kts
28-Aug-20 17:51 37.945787 -111.099981 243 38070ft 413kts
28-Aug-20 17:52 37.894475 -111.230519 242 38140ft 412kts
28-Aug-20 17:53 37.843288 -111.360195 243 38180ft 411kts
28-Aug-20 17:54 37.792120 -111.489289 242 38209ft 411kts
28-Aug-20 17:55 37.740767 -111.618316 242 38219ft 410kts
28-Aug-20 17:56 37.689413 -111.746820 242 38238ft 410kts
28-Aug-20 17:57 37.638211 -111.875316 242 38259ft 409kts
28-Aug-20 17:58 37.586441 -112.003329 242 38281ft 409kts
28-Aug-20 17:59 37.534463 -112.131455 242 38284ft 409kts
28-Aug-20 18:00 37.476302 -112.254454 238 38264ft 409kts
28-Aug-20 18:01 37.416710 -112.377145 238 38235ft 410kts
28-Aug-20 18:02 37.357475 -112.499402 238 38187ft 411kts
28-Aug-20 18:03 37.298511 -112.622661 238 38141ft 411kts
28-Aug-20 18:04 37.239167 -112.745319 238 38122ft 411kts
28-Aug-20 18:05 37.179566 -112.867852 238 38115ft 411kts
28-Aug-20 18:06 37.119927 -112.989973 238 37986ft 413kts
28-Aug-20 18:07 37.059809 -113.112629 238 35432ft 415kts
28-Aug-20 18:08 36.999049 -113.236134 237 32481ft 417kts
28-Aug-20 18:09 36.939019 -113.357707 237 30274ft 404kts
28-Aug-20 18:10 36.880433 -113.475936 236 28188ft 395kts
28-Aug-20 18:11 36.823087 -113.591261 236 26182ft 386kts
28-Aug-20 18:12 36.766923 -113.703832 236 24182ft 379kts
28-Aug-20 18:13 36.711844 -113.814583 236 22234ft 372kts
28-Aug-20 18:14 36.657347 -113.922859 236 20304ft 365kts
28-Aug-20 18:15 36.603543 -114.029308 237 18361ft 359kts
28-Aug-20 18:16 36.550958 -114.133133 237 16627ft 350kts
28-Aug-20 18:17 36.499377 -114.234408 237 14801ft 344kts
28-Aug-20 18:18 36.448162 -114.334001 237 12978ft 339kts
28-Aug-20 18:19 36.399114 -114.429214 237 12093ft 307kts
28-Aug-20 18:20 36.354931 -114.515184 237 11348ft 292kts
28-Aug-20 18:21 36.311326 -114.599576 237 10347ft 287kts
28-Aug-20 18:22 36.269290 -114.681259 236 9331ft 277kts
28-Aug-20 18:23 36.228292 -114.760618 237 8283ft 268kts
28-Aug-20 18:24 36.188740 -114.836930 236 7295ft 258kts
28-Aug-20 18:25 36.151563 -114.908704 236 6361ft 236kts
28-Aug-20 18:26 36.136043 -114.982859 270 5339ft 230kts
28-Aug-20 18:27 36.139570 -115.057462 268 4151ft 196kts
28-Aug-20 18:28 36.135753 -115.116181 249 3211ft 156kts
28-Aug-20 18:29 36.104150 -115.150382 207 2371ft 158kts
28-Aug-20 18:30 36.079129 -115.164735 203 2189ft 21kts
28-Aug-20 18:31 36.078036 -115.159913 90 2189ft 19kts
28-Aug-20 18:32 36.078044 -115.151922 89 2189ft 25kts
28-Aug-20 18:33 36.079308 -115.146183 353 2189ft 10kts
28-Aug-20 18:34 36.079698 -115.146233 354 2189ft 0kts
28-Aug-20 18:35 36.079698 -115.146233 354 2189ft 0kts
28-Aug-20 18:36 36.079698 -115.146233 354 2189ft 0kts
28-Aug-20 18:37 36.079698 -115.146233 354 2189ft 0kts
28-Aug-20 18:38 36.079698 -115.146233 354 2189ft 0kts
28-Aug-20 18:39 36.079698 -115.146233 354 2189ft 0kts
28-Aug-20 18:40 36.079698 -115.146233 354 2189ft 0kts
28-Aug-20 18:41 36.079698 -115.146233 354 2189ft 0kts
28-Aug-20 18:42 36.079698 -115.146233 354 2189ft 0kts
28-Aug-20 18:43 36.079698 -115.146233 354 2189ft 0kts
28-Aug-20 18:44 36.079698 -115.146233 354 2189ft 0kts

Navigation Log

Ident Type
Flight plan parsing failed, navigation log unavailable